Airport View

Enter AWOS ICAO identifier for current METAR.

ex. KFNL

KTKV 171309Z AUTO 16003KT 5SM BR OVC012 M01/M03 A2991 RMK AO2 T10071028

17 Nov 2019 13:12

Frequency: 118.250

Phone: 715-453-5716

Other Area AWOS: KRRL - KRHI - KARV - KPBH

TAF KRHI 171133Z 1712/1812 19007KT 5SM -SN OVC024 FM171400 19007KT 2SM -SN OVC011 FM171600 19006KT 1 1/2SM -SN BR OVC007 FM171900 21006KT 5SM -SN BR OVC006 FM172200 28003KT 6SM BR OVC010 FM180500 31003KT P6SM OVC012